createdAt,value
2023-02-05T00:00:26.011Z,8.09
2023-02-05T00:02:54.223Z,8.05
2023-02-05T00:05:23.559Z,8.03
2023-02-05T00:07:51.849Z,8.08
2023-02-05T00:10:20.338Z,8.01
2023-02-05T00:12:49.996Z,8.04
2023-02-05T00:15:18.256Z,8.04
2023-02-05T00:17:46.475Z,8.11
2023-02-05T00:20:14.658Z,8.06
2023-02-05T00:22:42.910Z,8.04
2023-02-05T00:25:11.150Z,8.01
2023-02-05T00:27:39.492Z,7.98
2023-02-05T00:30:12.291Z,7.97
2023-02-05T00:32:40.516Z,7.91
2023-02-05T00:35:09.081Z,7.90
2023-02-05T00:37:37.683Z,7.94
2023-02-05T00:40:06.618Z,7.96
2023-02-05T00:42:34.975Z,7.93
2023-02-05T00:45:03.292Z,7.91
2023-02-05T00:47:33.263Z,7.87
2023-02-05T00:50:01.537Z,7.89
2023-02-05T00:52:29.774Z,7.86
2023-02-05T00:54:58.326Z,7.83
2023-02-05T00:57:26.702Z,7.78
2023-02-05T00:59:54.922Z,7.79
2023-02-05T01:02:25.235Z,7.84
2023-02-05T01:04:55.280Z,7.81
2023-02-05T01:07:23.561Z,7.85
2023-02-05T01:09:51.779Z,7.85
2023-02-05T01:12:20.008Z,7.86
2023-02-05T01:14:48.239Z,7.87
2023-02-05T01:17:16.500Z,7.84
2023-02-05T01:19:44.703Z,7.84
2023-02-05T01:22:16.078Z,7.84
2023-02-05T01:24:44.432Z,7.88
2023-02-05T01:27:12.663Z,7.87
2023-02-05T01:29:40.959Z,7.83
2023-02-05T01:32:09.232Z,7.79
2023-02-05T01:34:41.735Z,7.75
2023-02-05T01:37:09.992Z,7.82
2023-02-05T01:39:40.281Z,7.83
2023-02-05T01:42:18.442Z,7.78
2023-02-05T01:45:06.760Z,7.79
2023-02-05T01:47:35.050Z,7.76
2023-02-05T01:50:03.302Z,7.74
2023-02-05T01:52:31.526Z,7.76
2023-02-05T01:55:02.340Z,7.79
2023-02-05T01:57:30.997Z,7.72
2023-02-05T01:59:59.653Z,7.69
2023-02-05T02:02:29.817Z,7.71
2023-02-05T02:05:04.026Z,7.75
2023-02-05T02:07:32.290Z,7.76
2023-02-05T02:10:02.122Z,7.76
2023-02-05T02:12:34.763Z,7.82
2023-02-05T02:15:10.141Z,7.77
2023-02-05T02:17:42.179Z,7.79
2023-02-05T02:20:12.980Z,7.76
2023-02-05T02:22:59.045Z,7.78
2023-02-05T02:26:00.740Z,7.76
2023-02-05T02:28:35.550Z,7.76
2023-02-05T02:31:08.613Z,7.69
2023-02-05T02:33:43.807Z,7.71
2023-02-05T02:36:17.825Z,7.72
2023-02-05T02:38:52.420Z,7.69
2023-02-05T02:41:26.543Z,7.65
2023-02-05T02:43:58.428Z,7.65
2023-02-05T02:46:31.970Z,7.64
2023-02-05T02:49:06.300Z,7.64
2023-02-05T02:51:37.557Z,7.56
2023-02-05T02:54:09.444Z,7.57
2023-02-05T02:56:40.463Z,7.59
2023-02-05T02:59:13.607Z,7.55
2023-02-05T03:01:49.621Z,7.46
2023-02-05T03:04:27.482Z,7.45
2023-02-05T03:06:58.607Z,7.49
2023-02-05T03:09:35.737Z,7.47
2023-02-05T03:12:05.209Z,7.43
2023-02-05T03:14:35.123Z,7.43
2023-02-05T03:17:03.737Z,7.50
2023-02-05T03:19:33.621Z,7.54
2023-02-05T03:22:05.221Z,7.50
2023-02-05T03:24:33.712Z,7.49
2023-02-05T03:27:02.004Z,7.50
2023-02-05T03:29:33.010Z,7.57
2023-02-05T03:32:21.577Z,7.59
2023-02-05T03:35:03.244Z,7.58
2023-02-05T03:37:42.452Z,7.60
2023-02-05T03:40:19.968Z,7.61
2023-02-05T03:43:00.057Z,7.61
2023-02-05T03:45:42.799Z,7.67
2023-02-05T03:48:23.825Z,7.70
2023-02-05T03:50:56.859Z,7.67
2023-02-05T03:53:34.417Z,7.64
2023-02-05T03:56:08.364Z,7.70
2023-02-05T03:58:42.842Z,7.73
2023-02-05T04:01:12.998Z,7.73
2023-02-05T04:03:45.263Z,7.73
2023-02-05T04:06:14.161Z,7.70
2023-02-05T04:08:44.032Z,7.75
2023-02-05T04:11:12.520Z,7.69
2023-02-05T04:13:41.510Z,7.73
2023-02-05T04:16:12.494Z,7.81
2023-02-05T04:18:41.087Z,7.71
2023-02-05T04:21:10.748Z,7.71
2023-02-05T04:23:42.336Z,7.69
2023-02-05T04:26:11.004Z,7.58
2023-02-05T04:28:46.582Z,7.54
2023-02-05T04:31:15.378Z,7.45
2023-02-05T04:33:44.520Z,7.41
2023-02-05T04:36:16.700Z,7.38
2023-02-05T04:38:45.048Z,7.33
2023-02-05T04:41:13.329Z,7.32
2023-02-05T04:43:41.515Z,7.31
2023-02-05T04:46:11.061Z,7.33
2023-02-05T04:48:40.706Z,7.32
2023-02-05T04:51:10.488Z,7.26
2023-02-05T04:53:40.438Z,7.27
2023-02-05T04:56:11.847Z,7.23
2023-02-05T04:58:41.110Z,7.27
2023-02-05T05:01:13.413Z,7.20
2023-02-05T05:03:41.922Z,7.26
2023-02-05T05:06:10.399Z,7.23
2023-02-05T05:08:40.530Z,7.17
2023-02-05T05:11:12.418Z,7.18
2023-02-05T05:13:40.680Z,7.19
2023-02-05T05:16:10.763Z,7.20
2023-02-05T05:18:39.989Z,7.24
2023-02-05T05:21:09.277Z,7.23
2023-02-05T05:23:38.684Z,7.24
2023-02-05T05:26:10.204Z,7.32
2023-02-05T05:28:39.515Z,7.30
2023-02-05T05:31:09.437Z,7.34
2023-02-05T05:33:39.085Z,7.37
2023-02-05T05:36:08.687Z,7.40
2023-02-05T05:38:37.114Z,7.41
2023-02-05T05:41:23.407Z,7.44
2023-02-05T05:43:55.426Z,7.35
2023-02-05T05:46:25.681Z,7.31
2023-02-05T05:48:56.221Z,7.27
2023-02-05T05:51:25.655Z,7.22
2023-02-05T05:53:54.654Z,7.16
2023-02-05T05:56:23.740Z,7.16
2023-02-05T05:58:53.837Z,7.08
2023-02-05T06:01:23.029Z,7.01
2023-02-05T06:03:51.866Z,6.98
2023-02-05T06:06:20.183Z,6.94
2023-02-05T06:08:48.640Z,6.91
2023-02-05T06:11:16.857Z,6.89
2023-02-05T06:13:45.067Z,6.90
2023-02-05T06:16:14.727Z,6.84
2023-02-05T06:18:42.979Z,6.84
2023-02-05T06:21:11.208Z,6.82
2023-02-05T06:23:39.515Z,6.81
2023-02-05T06:26:07.736Z,6.76
2023-02-05T06:28:36.006Z,6.75
2023-02-05T06:31:04.423Z,6.74
2023-02-05T06:33:34.097Z,6.71
2023-02-05T06:36:02.550Z,6.65
2023-02-05T06:38:30.790Z,6.55
2023-02-05T06:40:59.010Z,6.49
2023-02-05T06:43:27.212Z,6.36
2023-02-05T06:45:55.702Z,6.26
2023-02-05T06:48:24.038Z,6.22
2023-02-05T06:50:53.645Z,6.20
2023-02-05T06:53:21.858Z,6.22
2023-02-05T06:55:50.072Z,6.24
2023-02-05T06:58:18.378Z,6.24
2023-02-05T07:00:46.673Z,6.31
2023-02-05T07:03:14.886Z,6.36
2023-02-05T07:05:43.129Z,6.38
2023-02-05T07:08:12.788Z,6.43
2023-02-05T07:10:41.055Z,6.44
2023-02-05T07:13:09.256Z,6.43
2023-02-05T07:15:38.247Z,6.45
2023-02-05T07:18:06.755Z,6.49
2023-02-05T07:20:35.094Z,6.51
2023-02-05T07:23:03.327Z,6.52
2023-02-05T07:25:36.568Z,6.56
2023-02-05T07:28:05.724Z,6.56
2023-02-05T07:30:34.081Z,6.59
2023-02-05T07:33:03.567Z,6.61
2023-02-05T07:35:32.465Z,6.61
2023-02-05T07:38:00.841Z,6.60
2023-02-05T07:40:29.123Z,6.61
2023-02-05T07:42:58.736Z,6.58
2023-02-05T07:45:26.972Z,6.56
2023-02-05T07:47:55.181Z,6.55
2023-02-05T07:50:23.382Z,6.56
2023-02-05T07:52:51.612Z,6.56
2023-02-05T07:55:20.105Z,6.64
2023-02-05T07:57:48.302Z,6.71
2023-02-05T08:00:18.357Z,6.75
2023-02-05T08:02:46.639Z,6.76
2023-02-05T08:05:14.887Z,6.82
2023-02-05T08:07:43.130Z,6.87
2023-02-05T08:10:14.672Z,6.91
2023-02-05T08:12:42.890Z,6.95
2023-02-05T08:15:11.450Z,6.99
2023-02-05T08:17:42.123Z,6.99
2023-02-05T08:20:11.814Z,7.03
2023-02-05T08:22:41.854Z,7.08
2023-02-05T08:25:14.063Z,7.13
2023-02-05T08:27:43.804Z,7.19
2023-02-05T08:30:14.989Z,7.23
2023-02-05T08:32:48.318Z,7.20
2023-02-05T08:35:19.316Z,7.14
2023-02-05T08:37:47.601Z,7.14
2023-02-05T08:40:15.972Z,7.11
2023-02-05T08:42:44.196Z,7.15
2023-02-05T08:45:12.414Z,7.12
2023-02-05T08:47:40.677Z,7.10
2023-02-05T08:50:11.188Z,7.09
2023-02-05T08:52:39.916Z,7.11
2023-02-05T08:55:08.422Z,7.15
2023-02-05T08:57:36.691Z,7.15
2023-02-05T09:00:05.356Z,7.15
2023-02-05T09:02:33.592Z,7.07
2023-02-05T09:05:08.965Z,6.95
2023-02-05T09:07:40.424Z,6.73
2023-02-05T09:10:10.104Z,6.65
2023-02-05T09:12:39.376Z,6.64
2023-02-05T09:15:09.075Z,6.68
2023-02-05T09:17:37.944Z,6.73
2023-02-05T09:20:06.594Z,6.80
2023-02-05T09:22:34.808Z,6.93
2023-02-05T09:25:04.483Z,7.00
2023-02-05T09:27:33.072Z,7.13
2023-02-05T09:30:03.714Z,7.13
2023-02-05T09:32:31.958Z,7.11
2023-02-05T09:35:00.175Z,7.20
2023-02-05T09:37:28.406Z,7.24
2023-02-05T09:42:51.859Z,7.10
2023-02-05T09:45:35.661Z,7.07
2023-02-05T09:48:34.053Z,7.00
2023-02-05T09:51:02.825Z,7.01
2023-02-05T09:53:37.556Z,7.04
2023-02-05T09:56:09.067Z,7.24
2023-02-05T09:58:43.842Z,7.39
2023-02-05T10:01:17.555Z,7.56
2023-02-05T10:03:48.153Z,7.78
2023-02-05T10:06:41.299Z,7.71
2023-02-05T10:09:26.928Z,7.76
2023-02-05T10:12:03.664Z,7.81
2023-02-05T10:14:46.853Z,7.91
2023-02-05T10:17:33.582Z,8.14
2023-02-05T10:20:16.311Z,8.00
2023-02-05T10:22:54.256Z,7.79
2023-02-05T10:25:45.713Z,7.71
2023-02-05T10:28:29.130Z,7.55
2023-02-05T10:31:05.508Z,7.46
2023-02-05T10:33:48.783Z,7.57
2023-02-05T10:36:21.364Z,7.75
2023-02-05T10:38:51.929Z,7.87
2023-02-05T10:41:25.650Z,7.99
2023-02-05T10:44:00.763Z,7.91
2023-02-05T10:46:35.401Z,8.04
2023-02-05T10:49:12.148Z,8.16
2023-02-05T10:51:42.898Z,8.41
2023-02-05T10:54:20.404Z,8.41
2023-02-05T10:56:49.193Z,8.41
2023-02-05T10:59:22.911Z,8.46
2023-02-05T11:01:53.013Z,8.34
2023-02-05T11:04:29.283Z,8.11
2023-02-05T11:06:58.086Z,8.11
2023-02-05T11:09:32.292Z,8.32
2023-02-05T11:12:03.281Z,8.51
2023-02-05T11:14:35.780Z,8.39
2023-02-05T11:17:21.910Z,8.51
2023-02-05T11:19:55.304Z,8.44
2023-02-05T11:22:28.359Z,8.26
2023-02-05T11:25:07.785Z,8.17
2023-02-05T11:27:36.751Z,8.33
2023-02-05T11:30:49.542Z,8.34
2023-02-05T11:33:25.888Z,8.73
2023-02-05T11:35:56.946Z,8.52
2023-02-05T11:38:31.290Z,8.53
2023-02-05T11:41:01.876Z,8.78
2023-02-05T11:43:33.134Z,8.74
2023-02-05T11:46:03.344Z,8.52
2023-02-05T11:48:41.529Z,8.56
2023-02-05T11:51:12.604Z,8.68
2023-02-05T11:53:55.114Z,8.52
2023-02-05T11:56:26.369Z,8.75
2023-02-05T11:59:01.943Z,9.04
2023-02-05T12:01:33.948Z,8.78
2023-02-05T12:04:05.113Z,8.66
2023-02-05T12:06:38.903Z,8.59
2023-02-05T12:09:07.742Z,8.73
2023-02-05T12:12:06.556Z,8.67
2023-02-05T12:14:42.364Z,8.90
2023-02-05T12:17:39.139Z,8.87
2023-02-05T12:20:19.255Z,8.76
2023-02-05T12:23:22.091Z,8.96
2023-02-05T12:25:58.815Z,8.91
2023-02-05T12:28:37.254Z,8.82
2023-02-05T12:31:20.644Z,8.76
2023-02-05T12:34:12.943Z,8.58
2023-02-05T12:36:52.679Z,8.89
2023-02-05T12:39:36.108Z,9.04
2023-02-05T12:42:12.747Z,8.59
2023-02-05T12:44:57.312Z,8.45
2023-02-05T12:47:46.414Z,8.44
2023-02-05T12:50:35.425Z,8.81
2023-02-05T12:53:19.799Z,8.90
2023-02-05T12:55:59.582Z,9.20
2023-02-05T12:58:32.729Z,8.98
2023-02-05T13:01:07.729Z,8.82
2023-02-05T13:03:43.630Z,8.82
2023-02-05T13:06:17.641Z,8.75
2023-02-05T13:08:51.609Z,8.87
2023-02-05T13:11:24.841Z,8.82
2023-02-05T13:13:57.965Z,8.93
2023-02-05T13:16:37.784Z,9.15
2023-02-05T13:19:21.263Z,9.14
2023-02-05T13:22:08.468Z,8.72
2023-02-05T13:25:01.028Z,8.72
2023-02-05T13:27:51.432Z,8.95
2023-02-05T13:30:23.993Z,8.94
2023-02-05T13:32:57.139Z,8.81
2023-02-05T13:35:27.189Z,8.65
2023-02-05T13:38:13.936Z,8.56
2023-02-05T13:41:03.178Z,8.80
2023-02-05T13:44:04.505Z,8.75
2023-02-05T13:47:06.393Z,8.46
2023-02-05T13:50:12.649Z,8.42
2023-02-05T13:53:05.747Z,8.51
2023-02-05T13:56:05.676Z,8.66
2023-02-05T13:58:40.141Z,8.79
2023-02-05T14:01:17.879Z,8.58
2023-02-05T14:03:56.788Z,8.42
2023-02-05T14:06:30.775Z,8.38
2023-02-05T14:09:03.046Z,8.31
2023-02-05T14:11:50.599Z,8.41
2023-02-05T14:14:26.343Z,8.51
2023-02-05T14:16:56.032Z,8.59
2023-02-05T14:19:46.775Z,8.59
2023-02-05T14:22:42.310Z,8.50
2023-02-05T14:26:01.666Z,8.55
2023-02-05T14:28:49.299Z,8.38
2023-02-05T14:31:59.002Z,8.28
2023-02-05T14:34:58.689Z,8.24
2023-02-05T14:37:39.331Z,8.34
2023-02-05T14:40:23.120Z,8.37
2023-02-05T14:43:08.483Z,8.44
2023-02-05T14:45:44.818Z,8.30
2023-02-05T14:48:22.542Z,8.20
2023-02-05T14:51:05.393Z,8.08
2023-02-05T14:53:35.597Z,8.04
2023-02-05T14:56:04.909Z,8.04
2023-02-05T14:58:38.481Z,8.06
2023-02-05T15:01:42.641Z,8.23
2023-02-05T15:04:24.847Z,8.33
2023-02-05T15:06:56.771Z,8.31
2023-02-05T15:09:37.374Z,8.15
2023-02-05T15:12:29.479Z,8.03
2023-02-05T15:14:58.729Z,7.96
2023-02-05T15:17:52.324Z,7.93
2023-02-05T15:20:32.464Z,7.85
2023-02-05T15:23:26.630Z,7.91
2023-02-05T15:25:59.471Z,7.82
2023-02-05T15:28:33.503Z,7.71
2023-02-05T15:31:22.318Z,7.69
2023-02-05T15:33:59.018Z,7.63
2023-02-05T15:36:33.306Z,7.62
2023-02-05T15:39:10.421Z,7.60
2023-02-05T15:41:44.618Z,7.52
2023-02-05T15:44:22.302Z,7.58
2023-02-05T15:46:50.928Z,7.61
2023-02-05T15:49:19.282Z,7.56
2023-02-05T15:51:48.925Z,7.47
2023-02-05T15:54:22.102Z,7.47
2023-02-05T15:56:52.998Z,7.44
2023-02-05T15:59:25.028Z,7.39
2023-02-05T16:02:03.065Z,7.32
2023-02-05T16:04:34.030Z,7.22
2023-02-05T16:07:02.873Z,7.15
2023-02-05T16:09:32.620Z,7.12
2023-02-05T16:12:12.697Z,7.10
2023-02-05T16:14:41.033Z,7.07
2023-02-05T16:17:14.600Z,7.04
2023-02-05T16:19:48.248Z,6.97
2023-02-05T16:22:27.296Z,6.94
2023-02-05T16:25:01.368Z,6.86
2023-02-05T16:27:36.871Z,6.83
2023-02-05T16:30:08.707Z,6.72
2023-02-05T16:32:42.346Z,6.69
2023-02-05T16:35:21.503Z,6.66
2023-02-05T16:37:50.102Z,6.64
2023-02-05T16:40:32.022Z,6.59
2023-02-05T16:43:00.464Z,6.55
2023-02-05T16:45:29.487Z,6.49
2023-02-05T16:48:22.672Z,6.40
2023-02-05T16:50:52.213Z,6.38
2023-02-05T16:53:26.156Z,6.33
2023-02-05T16:55:59.261Z,6.35
2023-02-05T16:58:38.028Z,6.33
2023-02-05T17:01:06.485Z,6.30
2023-02-05T17:03:37.296Z,6.28
2023-02-05T17:06:13.256Z,6.31
2023-02-05T17:08:42.351Z,6.31
2023-02-05T17:11:35.998Z,6.27
2023-02-05T17:14:28.221Z,6.23
2023-02-05T17:16:58.249Z,6.19
2023-02-05T17:19:28.719Z,6.22
2023-02-05T17:22:18.932Z,6.24
2023-02-05T17:24:49.359Z,6.20
2023-02-05T17:27:23.158Z,6.13
2023-02-05T17:29:51.855Z,6.10
2023-02-05T17:32:21.182Z,6.10
2023-02-05T17:34:50.096Z,6.06
2023-02-05T17:37:18.345Z,6.10
2023-02-05T17:39:46.723Z,6.19
2023-02-05T17:42:22.026Z,6.20
2023-02-05T17:44:51.129Z,6.20
2023-02-05T17:47:20.129Z,6.21
2023-02-05T17:49:48.511Z,6.24
2023-02-05T17:52:17.028Z,6.21
2023-02-05T17:54:46.512Z,6.22
2023-02-05T17:57:17.556Z,6.20
2023-02-05T17:59:47.892Z,6.16
2023-02-05T18:02:17.093Z,6.08
2023-02-05T18:04:46.031Z,6.09
2023-02-05T18:07:21.455Z,6.00
2023-02-05T18:09:49.717Z,5.95
2023-02-05T18:12:17.976Z,5.89
2023-02-05T18:14:47.560Z,5.92
2023-02-05T18:17:17.531Z,5.90
2023-02-05T18:19:45.763Z,5.89
2023-02-05T18:22:14.357Z,5.87
2023-02-05T18:24:42.711Z,5.90
2023-02-05T18:27:12.060Z,5.89
2023-02-05T18:29:42.737Z,5.91
2023-02-05T18:32:13.372Z,5.90
2023-02-05T18:34:41.804Z,5.87
2023-02-05T18:37:10.157Z,5.82
2023-02-05T18:39:39.321Z,5.84
2023-02-05T18:42:07.666Z,5.82
2023-02-05T18:44:36.149Z,5.87
2023-02-05T18:47:05.964Z,5.86
2023-02-05T18:49:36.276Z,5.83
2023-02-05T18:52:05.956Z,5.84
2023-02-05T18:54:34.424Z,5.84
2023-02-05T18:57:02.672Z,5.75
2023-02-05T18:59:30.966Z,5.71
2023-02-05T19:01:59.750Z,5.74
2023-02-05T19:04:32.898Z,5.75
2023-02-05T19:07:02.627Z,5.79
2023-02-05T19:09:31.591Z,5.76
2023-02-05T19:11:59.852Z,5.76
2023-02-05T19:14:28.389Z,5.71
2023-02-05T19:16:56.789Z,5.72
2023-02-05T19:19:27.052Z,5.70
2023-02-05T19:21:59.873Z,5.69
2023-02-05T19:24:30.358Z,5.66
2023-02-05T19:26:59.201Z,5.67
2023-02-05T19:29:27.832Z,5.70
2023-02-05T19:31:57.385Z,5.68
2023-02-05T19:34:27.775Z,5.68
2023-02-05T19:36:56.039Z,5.74
2023-02-05T19:39:24.347Z,5.75
2023-02-05T19:41:54.153Z,5.74
2023-02-05T19:44:22.409Z,5.69
2023-02-05T19:46:53.672Z,5.64
2023-02-05T19:49:23.228Z,5.64
2023-02-05T19:51:54.216Z,5.63
2023-02-05T19:54:22.704Z,5.62
2023-02-05T19:56:51.610Z,5.61
2023-02-05T19:59:21.313Z,5.61
2023-02-05T20:01:49.940Z,5.55
2023-02-05T20:04:21.265Z,5.56
2023-02-05T20:06:52.142Z,5.56
2023-02-05T20:09:20.404Z,5.60
2023-02-05T20:11:50.926Z,5.60
2023-02-05T20:14:21.226Z,5.53
2023-02-05T20:16:49.538Z,5.50
2023-02-05T20:19:18.627Z,5.53
2023-02-05T20:21:48.398Z,5.53
2023-02-05T20:24:17.391Z,5.50
2023-02-05T20:26:47.833Z,5.50
2023-02-05T20:29:33.949Z,5.49
2023-02-05T20:32:03.879Z,5.40
2023-02-05T20:34:35.334Z,5.36
2023-02-05T20:37:05.961Z,5.35
2023-02-05T20:39:38.630Z,5.31
2023-02-05T20:42:07.107Z,5.27
2023-02-05T20:44:37.100Z,5.24
2023-02-05T20:47:08.462Z,5.22
2023-02-05T20:49:37.209Z,5.20
2023-02-05T20:52:05.818Z,5.13
2023-02-05T20:54:34.629Z,5.15
2023-02-05T20:57:02.912Z,5.07
2023-02-05T20:59:32.837Z,5.00
2023-02-05T21:02:02.590Z,5.04
2023-02-05T21:04:32.551Z,5.01
2023-02-05T21:07:00.964Z,5.00
2023-02-05T21:09:29.258Z,4.97
2023-02-05T21:11:57.508Z,4.96
2023-02-05T21:14:25.797Z,4.95
2023-02-05T21:16:54.318Z,4.90
2023-02-05T21:19:23.148Z,4.87
2023-02-05T21:21:53.236Z,4.83
2023-02-05T21:24:21.839Z,4.80
2023-02-05T21:26:50.659Z,4.81
2023-02-05T21:29:20.651Z,4.78
2023-02-05T21:31:52.792Z,4.81
2023-02-05T21:34:26.669Z,4.76
2023-02-05T21:36:56.945Z,4.67
2023-02-05T21:39:25.554Z,4.61
2023-02-05T21:41:54.498Z,4.52
2023-02-05T21:44:23.099Z,4.56
2023-02-05T21:46:53.278Z,4.63
2023-02-05T21:49:21.509Z,4.60
2023-02-05T21:51:50.408Z,4.61
2023-02-05T21:54:25.191Z,4.63
2023-02-05T21:56:54.316Z,4.65
2023-02-05T21:59:22.743Z,4.59
2023-02-05T22:01:51.202Z,4.58
2023-02-05T22:04:19.501Z,4.52
2023-02-05T22:06:47.759Z,4.54
2023-02-05T22:09:17.114Z,4.67
2023-02-05T22:11:46.906Z,4.67
2023-02-05T22:14:15.161Z,4.69
2023-02-05T22:16:43.626Z,4.68
2023-02-05T22:19:12.065Z,4.63
2023-02-05T22:21:42.442Z,4.61
2023-02-05T22:24:15.318Z,4.51
2023-02-05T22:26:44.455Z,4.48
2023-02-05T22:29:15.846Z,4.46
2023-02-05T22:31:45.392Z,4.47
2023-02-05T22:34:13.804Z,4.49
2023-02-05T22:36:42.025Z,4.46
2023-02-05T22:39:10.396Z,4.49
2023-02-05T22:41:41.057Z,4.53
2023-02-05T22:44:11.280Z,4.59
2023-02-05T22:46:42.731Z,4.68
2023-02-05T22:49:13.215Z,4.71
2023-02-05T22:51:42.007Z,4.69
2023-02-05T22:54:13.041Z,4.62
2023-02-05T22:56:41.420Z,4.63
2023-02-05T22:59:09.718Z,4.61
2023-02-05T23:01:39.341Z,4.59
2023-02-05T23:04:10.223Z,4.63
2023-02-05T23:06:40.960Z,4.64
2023-02-05T23:09:11.754Z,4.64
2023-02-05T23:11:40.093Z,4.66
2023-02-05T23:14:09.092Z,4.56
2023-02-05T23:16:39.566Z,4.51
2023-02-05T23:19:12.265Z,4.46
2023-02-05T23:21:41.449Z,4.42
2023-02-05T23:24:10.545Z,4.30
2023-02-05T23:26:42.546Z,4.27
2023-02-05T23:29:12.537Z,4.19
2023-02-05T23:31:41.546Z,4.18
2023-02-05T23:34:11.525Z,4.16
2023-02-05T23:36:39.993Z,4.15
2023-02-05T23:39:08.237Z,4.07
2023-02-05T23:41:36.832Z,4.14
2023-02-05T23:44:07.139Z,4.12
2023-02-05T23:46:36.569Z,4.08
2023-02-05T23:49:05.132Z,4.05
2023-02-05T23:51:35.261Z,4.02
2023-02-05T23:54:03.564Z,3.94
2023-02-05T23:56:31.864Z,4.00
2023-02-05T23:59:00.388Z,3.98
